Time;durP1;ratioP1;P1;durP2;ratioP2;P2;SDS_P1;SDS_P2;PMS_P1;PMS_P2;Temp;Humidity;BMP_temperature;BMP_pressure;BME280_temperature;BME280_humidity;BME280_pressure;Samples;Min_cycle;Max_cycle;Signal;HPM_P1;HPM_P2
2023/11/08 00:02:23;;;;;;;3.00;1.40;;;;;;;9.23;84.74;100248.38;7396517;19;20372;-60
2023/11/08 00:04:50;;;;;;;4.18;1.52;;;;;;;9.25;84.46;100246.38;7396683;19;20379;-62
2023/11/08 00:07:17;;;;;;;3.90;1.60;;;;;;;9.25;84.56;100249.03;7396724;19;20371;-60
2023/11/08 00:09:44;;;;;;;5.43;1.58;;;;;;;9.27;84.33;100249.66;7394120;19;20723;-61
2023/11/08 00:12:10;;;;;;;6.50;1.60;;;;;;;9.29;84.81;100242.38;7395392;19;20444;-61
2023/11/08 00:14:38;;;;;;;3.38;1.40;;;;;;;9.29;84.75;100250.31;7391637;19;20907;-61
2023/11/08 00:17:05;;;;;;;5.00;1.70;;;;;;;9.31;84.67;100256.25;7394852;19;20927;-60
2023/11/08 00:19:32;;;;;;;4.82;1.70;;;;;;;9.31;84.49;100240.38;7396900;19;20384;-60
2023/11/08 00:21:59;;;;;;;4.78;1.60;;;;;;;9.34;84.68;100249.78;7397652;19;20443;-59
2023/11/08 00:24:29;;;;;;;3.28;1.55;;;;;;;9.33;84.51;100248.97;7397382;19;20932;-61
2023/11/08 00:26:56;;;;;;;4.97;1.63;;;;;;;9.36;84.42;100247.78;7392727;19;20485;-60
2023/11/08 00:29:23;;;;;;;3.40;1.60;;;;;;;9.38;84.33;100254.53;7397280;19;20356;-61
2023/11/08 00:31:53;;;;;;;4.30;1.45;;;;;;;9.46;84.30;100252.84;7395648;19;20368;-60
2023/11/08 00:34:20;;;;;;;5.53;1.75;;;;;;;9.51;84.32;100250.47;7395559;19;20879;-61
2023/11/08 00:36:48;;;;;;;3.70;1.40;;;;;;;9.48;84.53;100256.09;7394756;19;20379;-59
2023/11/08 00:39:17;;;;;;;4.28;1.65;;;;;;;9.49;83.88;100252.47;7393481;19;20361;-58
2023/11/08 00:41:45;;;;;;;3.15;1.70;;;;;;;9.59;84.52;100250.41;7396932;19;20405;-61
2023/11/08 00:44:13;;;;;;;3.75;1.77;;;;;;;9.60;84.70;100252.03;7394015;19;20364;-60
2023/11/08 00:46:40;;;;;;;4.50;1.70;;;;;;;9.64;84.47;100257.81;7394455;19;20799;-60
2023/11/08 00:49:07;;;;;;;4.93;1.88;;;;;;;9.69;84.36;100247.47;7394491;19;20473;-59
2023/11/08 00:51:35;;;;;;;4.60;1.70;;;;;;;9.70;84.01;100249.97;7388253;19;20413;-59
2023/11/08 00:54:02;;;;;;;6.25;1.70;;;;;;;9.74;83.90;100248.59;7389454;19;20400;-60
2023/11/08 00:56:30;;;;;;;5.80;2.00;;;;;;;9.76;84.02;100249.25;7398338;19;20373;-60
2023/11/08 00:58:57;;;;;;;6.07;3.22;;;;;;;9.77;83.65;100253.53;7390480;19;20363;-61
2023/11/08 01:01:25;;;;;;;3.25;1.60;;;;;;;9.77;83.36;100250.88;7384126;19;20396;-61
2023/11/08 01:03:54;;;;;;;4.88;1.90;;;;;;;9.83;83.59;100253.81;7384476;19;20352;-60
2023/11/08 01:06:23;;;;;;;6.40;2.10;;;;;;;9.82;83.31;100254.81;7386648;19;20371;-60
2023/11/08 01:08:50;;;;;;;4.75;1.73;;;;;;;9.81;83.60;100259.28;7387230;19;20876;-60
2023/11/08 01:11:17;;;;;;;3.70;1.65;;;;;;;9.80;83.29;100257.66;7390413;19;20431;-60
2023/11/08 01:13:45;;;;;;;7.00;2.63;;;;;;;9.84;83.54;100256.31;7393308;19;20420;-60
2023/11/08 01:16:13;;;;;;;6.38;2.03;;;;;;;9.84;83.24;100252.81;7394644;19;20365;-59
2023/11/08 01:18:41;;;;;;;6.60;2.00;;;;;;;9.84;83.56;100256.31;7396993;19;20360;-60
2023/11/08 01:21:08;;;;;;;6.15;2.10;;;;;;;9.84;83.45;100256.31;7394179;19;20356;-59
2023/11/08 01:23:37;;;;;;;4.68;2.00;;;;;;;9.85;83.40;100257.94;7395866;19;20385;-60
2023/11/08 01:26:08;;;;;;;6.47;2.22;;;;;;;9.91;83.57;100261.69;7392048;19;20896;-59
2023/11/08 01:28:35;;;;;;;6.70;2.88;;;;;;;9.90;83.69;100254.72;7393563;19;20397;-59
2023/11/08 01:31:03;;;;;;;5.40;2.70;;;;;;;9.90;83.56;100252.09;7396135;19;20373;-58
2023/11/08 01:33:30;;;;;;;7.05;3.05;;;;;;;9.92;83.88;100263.31;7396168;19;20673;-60
2023/11/08 01:35:57;;;;;;;7.32;3.40;;;;;;;9.90;83.48;100252.94;7395439;19;20450;-61
2023/11/08 01:38:24;;;;;;;4.80;2.70;;;;;;;9.88;83.66;100251.44;7394558;19;20373;-60
2023/11/08 01:40:52;;;;;;;5.17;2.97;;;;;;;9.87;83.72;100252.47;7396437;19;20392;-59
2023/11/08 01:43:34;;;;;;;5.13;2.75;;;;;;;9.90;83.83;100252.09;7394992;19;20369;-59
2023/11/08 01:46:06;;;;;;;6.35;2.78;;;;;;;9.88;83.95;100248.78;7391903;19;20732;-59
2023/11/08 01:48:34;;;;;;;5.88;2.88;;;;;;;9.87;83.53;100250.63;7395248;19;20460;-60
2023/11/08 01:51:05;;;;;;;6.80;3.15;;;;;;;9.91;84.04;100259.84;7395730;19;20364;-59
2023/11/08 01:53:40;;;;;;;7.63;3.22;;;;;;;9.90;83.92;100257.38;7396353;19;20355;-60
2023/11/08 01:56:09;;;;;;;6.15;3.22;;;;;;;9.93;84.10;100243.78;7395948;19;20352;-60
2023/11/08 01:58:38;;;;;;;6.27;3.30;;;;;;;9.93;84.17;100247.25;7394266;19;20436;-59
2023/11/08 02:01:12;;;;;;;5.82;3.55;;;;;;;9.94;84.17;100245.41;7392227;19;20365;-60
2023/11/08 02:03:41;;;;;;;7.00;3.42;;;;;;;9.94;84.38;100245.41;7391726;19;20373;-61
2023/11/08 02:06:10;;;;;;;5.97;3.40;;;;;;;9.90;84.33;100267.97;7392521;19;20406;-60
2023/11/08 02:08:42;;;;;;;6.88;3.20;;;;;;;9.93;84.15;100257.03;7391744;19;20480;-60
2023/11/08 02:11:09;;;;;;;6.60;3.50;;;;;;;9.91;84.20;100264.34;7394430;19;20410;-60
2023/11/08 02:13:36;;;;;;;5.38;2.80;;;;;;;9.94;84.33;100261.31;7394221;19;20376;-58
2023/11/08 02:16:03;;;;;;;7.07;3.33;;;;;;;9.93;84.18;100251.75;7391057;19;20348;-61
2023/11/08 02:18:33;;;;;;;5.80;2.88;;;;;;;9.93;84.01;100259.69;7394123;19;20360;-61
2023/11/08 02:21:01;;;;;;;5.88;2.85;;;;;;;9.90;83.93;100249.44;7389606;19;20336;-60
2023/11/08 02:23:28;;;;;;;5.82;2.70;;;;;;;9.91;83.75;100253.75;7391799;19;20385;-61
2023/11/08 02:25:55;;;;;;;6.07;2.78;;;;;;;9.92;83.89;100258.03;7393287;19;20368;-59
2023/11/08 02:28:23;;;;;;;5.85;2.60;;;;;;;9.90;83.93;100260.03;7394402;19;20360;-60
2023/11/08 02:30:53;;;;;;;5.80;2.53;;;;;;;9.92;83.98;100253.53;7391723;19;20376;-60
2023/11/08 02:33:23;;;;;;;6.55;2.67;;;;;;;9.92;84.00;100263.31;7389472;19;20384;-61
2023/11/08 02:35:51;;;;;;;5.25;2.47;;;;;;;9.89;84.31;100255.75;7389289;19;20876;-59
2023/11/08 02:38:18;;;;;;;5.67;2.80;;;;;;;9.91;84.46;100245.78;7391537;19;20381;-60
2023/11/08 02:40:45;;;;;;;4.78;2.67;;;;;;;9.87;84.41;100245.31;7391536;19;20336;-61
2023/11/08 02:43:13;;;;;;;4.63;2.47;;;;;;;9.87;84.91;100255.09;7394465;19;20356;-60
2023/11/08 02:45:40;;;;;;;5.47;2.85;;;;;;;9.86;84.93;100256.09;7392944;19;20372;-61
2023/11/08 02:48:07;;;;;;;4.20;2.60;;;;;;;9.89;84.99;100253.09;7393570;19;20428;-59
2023/11/08 02:50:39;;;;;;;4.15;2.70;;;;;;;9.88;84.98;100252.28;7393404;19;20384;-60
2023/11/08 02:53:07;;;;;;;5.32;3.05;;;;;;;9.85;84.76;100247.34;7391160;19;20729;-57
2023/11/08 02:55:35;;;;;;;5.20;3.10;;;;;;;9.87;85.05;100247.16;7393174;19;20363;-59
2023/11/08 02:58:03;;;;;;;6.13;3.20;;;;;;;9.84;85.17;100255.44;7395156;19;20404;-60
2023/11/08 03:00:30;;;;;;;6.38;3.33;;;;;;;9.86;84.90;100253.44;7393820;19;20689;-61
2023/11/08 03:02:57;;;;;;;7.45;3.55;;;;;;;9.87;85.13;100249.81;7391883;19;20748;-59
2023/11/08 03:05:24;;;;;;;5.40;2.83;;;;;;;9.85;85.25;100257.94;7391864;19;20456;-61
2023/11/08 03:07:53;;;;;;;5.18;3.03;;;;;;;9.85;85.07;100252.63;7393654;19;20367;-61
2023/11/08 03:10:21;;;;;;;5.83;3.20;;;;;;;9.90;85.53;100254.72;7391644;19;20736;-61
2023/11/08 03:12:52;;;;;;;5.50;2.97;;;;;;;9.89;85.48;100243.31;7390379;19;20404;-60
2023/11/08 03:15:24;;;;;;;5.82;2.90;;;;;;;9.88;85.49;100252.28;7393551;19;20415;-61
2023/11/08 03:17:52;;;;;;;5.70;3.10;;;;;;;9.87;85.69;100242.69;7392116;19;20365;-60
2023/11/08 03:20:19;;;;;;;6.00;3.10;;;;;;;9.83;85.48;100245.88;7389780;19;20933;-61
2023/11/08 03:22:47;;;;;;;5.15;3.10;;;;;;;9.85;85.63;100251.81;7391784;19;20381;-59
2023/11/08 03:25:16;;;;;;;5.20;2.83;;;;;;;9.87;85.76;100249.81;7391510;19;20432;-61
2023/11/08 03:27:46;;;;;;;6.25;2.90;;;;;;;9.83;85.74;100243.22;7391642;19;20386;-60
2023/11/08 03:30:15;;;;;;;6.32;2.97;;;;;;;9.82;85.97;100247.72;7391213;19;20404;-60
2023/11/08 03:32:43;;;;;;;5.43;3.13;;;;;;;9.81;86.09;100259.28;7392347;19;20406;-59
2023/11/08 03:35:12;;;;;;;4.43;3.10;;;;;;;9.76;86.12;100257.19;7391133;19;20371;-58
2023/11/08 03:37:40;;;;;;;6.40;3.13;;;;;;;9.73;86.46;100275.25;7392197;19;20418;-59
2023/11/08 03:40:11;;;;;;;5.68;3.17;;;;;;;9.73;86.42;100260.22;7391374;19;20888;-61
2023/11/08 03:42:40;;;;;;;5.50;3.08;;;;;;;9.67;86.52;100260.09;7390157;19;20421;-61
2023/11/08 03:45:08;;;;;;;5.88;3.55;;;;;;;9.70;86.65;100255.25;7390877;19;20381;-59
2023/11/08 03:47:37;;;;;;;5.28;3.20;;;;;;;9.69;86.74;100248.34;7392585;19;20420;-58
2023/11/08 03:50:05;;;;;;;6.45;3.20;;;;;;;9.66;87.04;100258.44;7386696;19;20694;-60
2023/11/08 03:52:32;;;;;;;6.28;3.50;;;;;;;9.58;87.49;100256.69;7390314;19;20368;-59
2023/11/08 03:54:59;;;;;;;4.83;3.50;;;;;;;9.60;87.42;100265.28;7392216;19;20505;-60
2023/11/08 03:57:27;;;;;;;5.80;4.07;;;;;;;9.59;87.91;100258.34;7391890;19;20452;-59
2023/11/08 03:59:54;;;;;;;6.93;4.00;;;;;;;9.54;88.15;100256.25;7391517;19;20404;-60
2023/11/08 04:02:21;;;;;;;7.55;4.50;;;;;;;9.54;88.37;100255.41;7385888;19;20382;-61
2023/11/08 04:04:49;;;;;;;6.78;4.63;;;;;;;9.54;88.28;100260.69;7390091;19;20377;-57
2023/11/08 04:07:18;;;;;;;7.65;4.60;;;;;;;9.54;88.60;100263.34;7388809;19;20394;-61
2023/11/08 04:09:45;;;;;;;6.50;4.63;;;;;;;9.48;88.63;100274.63;7387692;19;20767;-61
2023/11/08 04:12:12;;;;;;;6.63;4.40;;;;;;;9.39;88.70;100266.78;7392838;19;20381;-61
2023/11/08 04:14:40;;;;;;;6.80;4.45;;;;;;;9.37;88.95;100276.72;7390682;19;20384;-58
2023/11/08 04:17:10;;;;;;;7.38;4.78;;;;;;;9.39;89.06;100282.69;7392322;19;20400;-60
2023/11/08 04:19:38;;;;;;;7.55;4.70;;;;;;;9.36;89.02;100285.66;7392698;19;20876;-61
2023/11/08 04:22:05;;;;;;;7.20;4.60;;;;;;;9.30;89.23;100273.13;7390328;19;20364;-60
2023/11/08 04:24:33;;;;;;;5.45;4.57;;;;;;;9.28;89.22;100301.59;7390387;19;20706;-58
2023/11/08 04:27:02;;;;;;;6.45;4.68;;;;;;;9.29;89.24;100290.03;7389903;19;20389;-61
2023/11/08 04:29:31;;;;;;;6.40;4.78;;;;;;;9.23;89.62;100293.38;7390639;19;20365;-59
2023/11/08 04:31:58;;;;;;;7.78;4.90;;;;;;;9.25;89.44;100291.38;7390608;19;20364;-60
2023/11/08 04:34:25;;;;;;;7.05;4.68;;;;;;;9.23;89.37;100288.06;7388278;19;20377;-61
2023/11/08 04:36:52;;;;;;;5.78;4.30;;;;;;;9.24;89.20;100281.78;7389268;19;20368;-59
2023/11/08 04:39:21;;;;;;;5.90;4.45;;;;;;;9.24;89.25;100288.91;7385830;19;20489;-61
2023/11/08 04:41:50;;;;;;;6.75;4.50;;;;;;;9.24;89.04;100281.78;7389783;19;20476;-62
2023/11/08 04:44:18;;;;;;;6.50;5.05;;;;;;;9.26;88.85;100289.53;7387769;19;20369;-59
2023/11/08 04:46:45;;;;;;;6.35;5.22;;;;;;;9.27;88.75;100286.72;7391514;19;20397;-60
2023/11/08 04:49:13;;;;;;;6.27;4.80;;;;;;;9.30;88.98;100281.06;7397801;19;20470;-59
2023/11/08 04:51:41;;;;;;;7.93;5.30;;;;;;;9.32;89.05;100279.06;7397512;19;20368;-61
2023/11/08 04:54:08;;;;;;;7.85;5.68;;;;;;;9.36;88.92;100285.66;7396346;19;20412;-59
2023/11/08 04:56:35;;;;;;;6.88;5.22;;;;;;;9.37;89.24;100289.97;7397163;19;20832;-59
2023/11/08 04:59:02;;;;;;;8.88;5.20;;;;;;;9.38;89.37;100296.91;7396509;19;20368;-61
2023/11/08 05:01:29;;;;;;;7.63;5.63;;;;;;;9.40;89.40;100296.72;7395164;19;20369;-59
2023/11/08 05:03:59;;;;;;;7.10;5.40;;;;;;;9.40;89.65;100302.03;7395208;19;20399;-60
2023/11/08 05:06:26;;;;;;;8.23;5.35;;;;;;;9.41;89.55;100300.19;7395042;19;20440;-61
2023/11/08 05:08:53;;;;;;;6.20;5.60;;;;;;;9.40;89.53;100302.03;7396113;19;20365;-61
2023/11/08 05:11:20;;;;;;;8.40;5.50;;;;;;;9.39;89.58;100290.63;7396311;19;20399;-60
2023/11/08 05:13:47;;;;;;;8.20;6.10;;;;;;;9.42;89.81;100302.66;7397395;19;20348;-60
2023/11/08 05:16:20;;;;;;;7.10;4.93;;;;;;;9.38;89.37;100304.84;7394627;19;20340;-61
2023/11/08 05:18:48;;;;;;;6.07;5.40;;;;;;;9.40;89.50;100312.59;7397137;19;20418;-59
2023/11/08 05:21:15;;;;;;;8.60;5.67;;;;;;;9.38;89.41;100304.84;7394636;19;20389;-59
2023/11/08 05:23:42;;;;;;;7.53;5.75;;;;;;;9.43;88.76;100306.13;7393429;19;20349;-61
2023/11/08 05:26:09;;;;;;;6.72;5.40;;;;;;;9.40;88.49;100302.03;7395649;19;20357;-61
2023/11/08 05:28:37;;;;;;;7.13;5.30;;;;;;;9.34;88.67;100319.41;7396609;19;20364;-61
2023/11/08 05:31:04;;;;;;;6.33;5.10;;;;;;;9.36;88.51;100312.13;7393578;19;20347;-61
2023/11/08 05:33:31;;;;;;;7.50;5.57;;;;;;;9.36;88.60;100312.13;7394350;19;20370;-61
2023/11/08 05:35:59;;;;;;;8.30;5.50;;;;;;;9.34;88.40;100316.78;7397069;19;20361;-61
2023/11/08 05:38:26;;;;;;;9.25;5.93;;;;;;;9.33;88.35;100322.28;7394832;19;20361;-61
2023/11/08 05:40:53;;;;;;;7.45;5.65;;;;;;;9.35;88.50;100321.09;7396790;19;20361;-60
2023/11/08 05:43:21;;;;;;;6.97;5.57;;;;;;;9.35;88.13;100321.09;7398223;19;20912;-60
2023/11/08 05:45:48;;;;;;;8.10;5.80;;;;;;;9.38;88.23;100325.19;7396156;19;20481;-59
2023/11/08 05:48:16;;;;;;;6.90;5.60;;;;;;;9.41;88.32;100326.66;7396928;19;20369;-58
2023/11/08 05:50:47;;;;;;;8.05;6.28;;;;;;;9.41;88.13;100329.31;7393232;19;20340;-61
2023/11/08 05:53:14;;;;;;;8.15;6.20;;;;;;;9.41;88.12;100314.25;7395712;19;20694;-60
2023/11/08 05:55:41;;;;;;;8.85;6.30;;;;;;;9.43;88.20;100322.84;7396125;19;20365;-60
2023/11/08 05:58:08;;;;;;;9.00;6.15;;;;;;;9.43;88.07;100317.53;7392918;19;20341;-59
2023/11/08 06:00:40;;;;;;;8.35;6.88;;;;;;;9.47;88.01;100334.72;7396156;19;20381;-59
2023/11/08 06:03:07;;;;;;;7.90;6.43;;;;;;;9.50;88.25;100331.75;7395343;19;20353;-61
2023/11/08 06:05:34;;;;;;;8.90;6.63;;;;;;;9.51;87.96;100335.19;7393101;19;20923;-58
2023/11/08 06:08:03;;;;;;;8.30;6.93;;;;;;;9.53;87.97;100354.38;7395330;19;20344;-60
2023/11/08 06:10:33;;;;;;;9.43;7.40;;;;;;;9.54;87.79;100330.38;7396560;19;20435;-59
2023/11/08 06:13:02;;;;;;;9.40;7.10;;;;;;;9.57;87.43;100339.78;7396602;19;20902;-61
2023/11/08 06:15:29;;;;;;;9.85;7.00;;;;;;;9.57;87.27;100329.19;7396249;19;20412;-61
2023/11/08 06:17:56;;;;;;;9.68;7.35;;;;;;;9.53;87.67;100333.19;7396126;19;20401;-59
2023/11/08 06:20:23;;;;;;;12.70;7.68;;;;;;;9.50;87.47;100344.97;7395111;19;20400;-60
2023/11/08 06:22:50;;;;;;;9.65;7.45;;;;;;;9.47;87.75;100333.91;7394092;19;20351;-61
2023/11/08 06:25:17;;;;;;;8.15;7.32;;;;;;;9.45;87.60;100333.25;7396437;19;20377;-61
2023/11/08 06:27:46;;;;;;;11.65;7.72;;;;;;;9.44;87.45;100339.56;7393527;19;20394;-62
2023/11/08 06:30:13;;;;;;;8.45;7.50;;;;;;;9.45;87.83;100335.91;7394360;19;20397;-59
2023/11/08 06:32:41;;;;;;;8.05;7.13;;;;;;;9.46;87.50;100348.97;7393389;19;20372;-61
2023/11/08 06:35:08;;;;;;;10.30;7.40;;;;;;;9.46;87.43;100351.63;7394362;19;20393;-60
2023/11/08 06:37:35;;;;;;;10.88;7.18;;;;;;;9.50;87.44;100355.56;7393321;19;20711;-60
2023/11/08 06:40:02;;;;;;;10.00;7.60;;;;;;;9.53;87.11;100354.38;7392831;19;20382;-61
2023/11/08 06:42:28;;;;;;;9.80;7.20;;;;;;;9.59;87.07;100351.03;7396272;19;20747;-60
2023/11/08 06:44:55;;;;;;;9.52;7.25;;;;;;;9.63;86.83;100360.28;7394311;19;20333;-59
2023/11/08 06:47:22;;;;;;;8.57;7.07;;;;;;;9.68;86.74;100368.50;7392740;19;20340;-60
2023/11/08 06:49:49;;;;;;;9.35;7.30;;;;;;;9.71;86.22;100346.97;7395051;19;20353;-59
2023/11/08 06:52:16;;;;;;;8.27;6.97;;;;;;;9.74;86.22;100356.38;7391792;19;20931;-60
2023/11/08 06:54:42;;;;;;;8.48;6.65;;;;;;;9.77;nan;100361.31;7392358;19;20356;-61
2023/11/08 06:57:09;;;;;;;8.18;7.30;;;;;;;9.82;85.87;100371.38;7395916;19;20369;-61
2023/11/08 06:59:36;;;;;;;10.25;7.20;;;;;;;9.85;85.79;100363.91;7395509;19;20345;-60
2023/11/08 07:02:03;;;;;;;9.27;6.53;;;;;;;9.88;85.13;100373.31;7390854;19;20351;-61
2023/11/08 07:04:31;;;;;;;8.37;6.60;;;;;;;9.95;85.19;100368.97;7392009;19;20344;-59
2023/11/08 07:07:01;;;;;;;10.27;6.60;;;;;;;9.98;84.93;100379.19;7393128;19;20356;-59
2023/11/08 07:09:28;;;;;;;8.45;6.13;;;;;;;10.00;84.80;100383.31;7392514;19;20389;-59
2023/11/08 07:11:55;;;;;;;11.52;6.95;;;;;;;10.04;84.51;100380.31;7394301;19;20345;-61
2023/11/08 07:14:23;;;;;;;10.32;6.35;;;;;;;10.05;84.10;100377.50;7393330;19;20368;-58
2023/11/08 07:16:50;;;;;;;9.05;6.30;;;;;;;10.08;84.19;100387.72;7395023;19;20427;-60
2023/11/08 07:19:17;;;;;;;8.52;6.30;;;;;;;10.09;83.94;100386.72;7394657;19;20899;-61
2023/11/08 07:21:44;;;;;;;7.15;5.60;;;;;;;10.08;83.63;100387.72;7392576;19;20364;-59
2023/11/08 07:24:12;;;;;;;8.98;6.40;;;;;;;10.17;83.48;100396.41;7390363;19;20368;-62
2023/11/08 07:26:38;;;;;;;7.82;5.90;;;;;;;10.25;83.25;100384.94;7381262;19;20355;-63
2023/11/08 07:29:05;;;;;;;8.95;6.25;;;;;;;10.35;83.50;100390.84;7392923;19;20780;-62
2023/11/08 07:31:33;;;;;;;8.35;6.00;;;;;;;10.38;83.48;100390.47;7394057;19;20341;-62
2023/11/08 07:34:00;;;;;;;8.05;6.03;;;;;;;10.40;83.48;100404.38;7389782;19;20910;-62
2023/11/08 07:36:29;;;;;;;8.15;6.38;;;;;;;10.44;83.29;100410.13;7390941;19;20359;-61
2023/11/08 07:38:56;;;;;;;7.60;5.85;;;;;;;10.42;83.12;100417.44;7393129;19;20343;-61
2023/11/08 07:41:23;;;;;;;8.85;6.40;;;;;;;10.46;82.95;100413.44;7390549;19;20341;-62
2023/11/08 07:43:50;;;;;;;10.20;6.85;;;;;;;10.47;82.92;100425.69;7392788;19;20356;-61
2023/11/08 07:46:17;;;;;;;11.13;6.75;;;;;;;10.41;83.22;100429.84;7390745;19;20412;-62
2023/11/08 07:48:44;;;;;;;9.70;6.85;;;;;;;10.46;83.08;100432.81;7388105;19;20358;-62
2023/11/08 07:51:10;;;;;;;7.63;6.50;;;;;;;10.46;83.40;100435.47;7383920;19;20375;-62
2023/11/08 07:53:37;;;;;;;8.13;6.28;;;;;;;10.47;83.19;100437.09;7382119;19;20404;-63
2023/11/08 07:56:07;;;;;;;7.00;5.95;;;;;;;10.47;83.12;100426.50;7383244;19;20394;-63
2023/11/08 07:58:35;;;;;;;8.20;5.78;;;;;;;10.44;82.80;100437.47;7381079;19;20348;-62
2023/11/08 08:01:01;;;;;;;6.78;5.55;;;;;;;10.48;82.94;100437.94;7379817;19;20393;-63
2023/11/08 08:03:28;;;;;;;8.43;5.72;;;;;;;10.48;82.97;100444.06;7385824;19;20836;-62
2023/11/08 08:05:56;;;;;;;6.65;5.15;;;;;;;10.46;82.64;100440.78;7389470;19;20370;-62
2023/11/08 08:08:23;;;;;;;6.82;5.78;;;;;;;10.55;82.69;100438.84;7390251;19;20435;-62
2023/11/08 08:10:50;;;;;;;8.52;5.57;;;;;;;10.61;82.42;100444.25;7392902;19;20375;-62
2023/11/08 08:13:18;;;;;;;6.90;5.35;;;;;;;10.64;82.27;100436.94;7393446;19;20973;-63
2023/11/08 08:15:57;;;;;;;7.22;5.43;;;;;;;10.65;82.17;100450.03;7392611;19;20336;-63
2023/11/08 08:18:24;;;;;;;6.50;5.40;;;;;;;10.68;82.25;100448.84;7389837;19;20347;-62
2023/11/08 08:20:52;;;;;;;8.18;5.82;;;;;;;10.74;82.46;100448.13;7392773;19;20360;-62
2023/11/08 08:23:18;;;;;;;6.82;5.43;;;;;;;10.72;81.86;100450.13;7398763;19;20365;-62
2023/11/08 08:25:45;;;;;;;8.50;5.50;;;;;;;10.76;82.18;100454.06;7394602;19;20376;-62
2023/11/08 08:28:12;;;;;;;7.07;5.30;;;;;;;10.75;81.93;100449.75;7387871;19;20444;-60
2023/11/08 08:30:39;;;;;;;6.10;4.82;;;;;;;10.79;81.98;100457.16;7399229;19;20363;-61
2023/11/08 08:33:06;;;;;;;7.28;5.43;;;;;;;10.86;81.55;100457.28;7398078;19;20378;-61
2023/11/08 08:35:32;;;;;;;8.10;4.85;;;;;;;10.87;81.23;100461.56;7393775;19;20372;-62
2023/11/08 08:38:00;;;;;;;7.32;5.40;;;;;;;10.88;81.19;100460.56;7394716;19;20379;-60
2023/11/08 08:40:28;;;;;;;7.30;5.53;;;;;;;10.91;81.21;100456.72;7397574;19;20386;-62
2023/11/08 08:42:54;;;;;;;7.72;5.55;;;;;;;10.90;81.32;100463.03;7391706;19;20372;-60
2023/11/08 08:45:22;;;;;;;7.57;5.03;;;;;;;10.85;81.34;100462.75;7396499;19;20379;-60
2023/11/08 08:47:52;;;;;;;7.53;5.18;;;;;;;10.84;81.22;100475.22;7392877;19;20376;-60
2023/11/08 08:50:19;;;;;;;7.20;5.47;;;;;;;10.83;81.13;100478.84;7394799;19;20426;-62
2023/11/08 08:52:46;;;;;;;6.80;5.03;;;;;;;10.86;81.26;100464.41;7393784;19;20336;-61
2023/11/08 08:55:13;;;;;;;7.80;5.18;;;;;;;10.88;80.99;100475.66;7398243;19;20675;-62
2023/11/08 08:57:43;;;;;;;7.15;4.95;;;;;;;10.97;80.79;100469.28;7395056;19;20731;-61
2023/11/08 09:00:11;;;;;;;6.40;5.05;;;;;;;10.96;80.73;100481.69;7396890;19;20380;-62
2023/11/08 09:02:38;;;;;;;6.27;4.87;;;;;;;11.02;80.73;100464.22;7396429;19;20409;-60
2023/11/08 09:05:08;;;;;;;6.60;4.40;;;;;;;11.09;80.21;100478.41;7394582;19;20440;-61
2023/11/08 09:07:35;;;;;;;5.80;4.10;;;;;;;11.13;79.90;100470.91;7395331;19;20352;-61
2023/11/08 09:10:04;;;;;;;8.23;4.00;;;;;;;11.16;79.79;100475.84;7394921;19;20372;-61
2023/11/08 09:12:31;;;;;;;6.60;4.10;;;;;;;11.20;79.93;100485.91;7395384;19;20353;-61
2023/11/08 09:14:58;;;;;;;6.82;4.50;;;;;;;11.22;80.13;100477.78;7395184;19;20378;-61
2023/11/08 09:17:25;;;;;;;6.68;4.38;;;;;;;11.24;80.24;100481.03;7393187;19;20340;-62
2023/11/08 09:19:52;;;;;;;5.75;4.30;;;;;;;11.24;80.20;100489.00;7392177;19;20699;-60
2023/11/08 09:22:23;;;;;;;5.75;4.63;;;;;;;11.28;80.48;100495.59;7394143;19;21242;-61
2023/11/08 09:24:50;;;;;;;6.47;4.22;;;;;;;11.26;80.62;100497.63;7395606;19;20344;-60
2023/11/08 09:27:18;;;;;;;5.95;3.45;;;;;;;11.09;79.76;100506.78;7394765;19;20705;-61
2023/11/08 09:29:45;;;;;;;6.60;3.67;;;;;;;11.10;79.56;100503.13;7394559;19;20696;-62
2023/11/08 09:32:12;;;;;;;6.18;3.55;;;;;;;11.10;79.84;100498.66;7393109;19;20352;-63
2023/11/08 09:34:39;;;;;;;7.10;3.30;;;;;;;11.07;79.41;100500.84;7396682;19;20900;-61
2023/11/08 09:37:07;;;;;;;5.53;3.78;;;;;;;11.18;79.37;100497.75;7395181;19;20364;-62
2023/11/08 09:39:36;;;;;;;6.45;3.60;;;;;;;11.23;79.27;100500.66;7397334;19;20880;-62
2023/11/08 09:42:04;;;;;;;5.43;3.50;;;;;;;11.27;78.58;100501.94;7394806;19;20368;-63
2023/11/08 09:44:31;;;;;;;6.68;3.58;;;;;;;11.37;78.72;100502.47;7395649;19;20420;-62
2023/11/08 09:46:59;;;;;;;7.97;3.80;;;;;;;11.48;78.84;100505.69;7394334;19;20368;-62
2023/11/08 09:49:27;;;;;;;4.97;3.50;;;;;;;11.55;78.30;100504.72;7396046;19;20412;-63
2023/11/08 09:51:55;;;;;;;5.35;3.70;;;;;;;11.57;77.85;100518.66;7394744;19;20369;-61
2023/11/08 09:54:22;;;;;;;6.93;3.50;;;;;;;11.59;77.48;100506.00;7394650;19;20376;-60
2023/11/08 09:56:50;;;;;;;6.50;3.42;;;;;;;11.55;77.27;100506.56;7390475;19;20365;-62
2023/11/08 09:59:20;;;;;;;7.03;3.70;;;;;;;11.53;77.26;100500.63;7390101;19;20713;-62
2023/11/08 10:01:51;;;;;;;7.43;3.65;;;;;;;11.57;77.36;100507.22;7390235;19;20376;-62
2023/11/08 10:04:18;;;;;;;6.60;3.53;;;;;;;11.55;77.16;100493.28;7387731;19;20380;-61
2023/11/08 10:06:54;;;;;;;6.65;3.55;;;;;;;11.55;77.26;100509.22;7390627;19;20356;-63
2023/11/08 10:09:31;;;;;;;7.40;3.72;;;;;;;11.48;77.42;100497.72;7391768;19;20943;-63
2023/11/08 10:11:58;;;;;;;7.95;3.55;;;;;;;11.56;77.56;100494.94;7394779;19;20360;-63
2023/11/08 10:14:34;;;;;;;7.15;3.50;;;;;;;11.59;76.99;100494.56;7396339;19;20364;-62
2023/11/08 10:17:03;;;;;;;8.65;3.42;;;;;;;11.61;77.04;100488.06;7395086;19;20346;-62
2023/11/08 10:19:47;;;;;;;4.68;2.95;;;;;;;11.73;77.38;100500.84;7394111;19;20394;-62
2023/11/08 10:22:23;;;;;;;5.65;2.92;;;;;;;11.80;76.37;100493.78;7394845;19;20460;-62
2023/11/08 10:24:58;;;;;;;6.33;2.80;;;;;;;11.89;76.12;100484.69;7394614;19;20423;-62
2023/11/08 10:27:26;;;;;;;6.90;3.30;;;;;;;12.02;76.18;100499.97;7393495;19;20360;-62
2023/11/08 10:30:11;;;;;;;6.05;2.60;;;;;;;12.00;75.54;100488.69;7392577;19;20436;-63
2023/11/08 10:32:37;;;;;;;5.60;2.60;;;;;;;12.14;75.86;100477.19;7391102;19;21040;-63
2023/11/08 10:35:19;;;;;;;6.10;2.40;;;;;;;12.20;75.22;100483.59;7390799;19;20390;-62
2023/11/08 10:37:50;;;;;;;4.90;2.20;;;;;;;12.30;75.43;100483.25;7392437;19;20336;-63
2023/11/08 10:40:18;;;;;;;6.07;2.58;;;;;;;12.26;74.77;100481.97;7392703;19;20354;-63
2023/11/08 10:42:55;;;;;;;6.35;2.00;;;;;;;12.17;74.72;100478.63;7393200;19;20364;-62
2023/11/08 10:45:23;;;;;;;5.47;2.30;;;;;;;12.20;75.07;100481.75;7395498;19;20353;-63
2023/11/08 10:47:50;;;;;;;9.73;2.50;;;;;;;12.21;74.54;100486.03;7393888;19;20365;-62
2023/11/08 10:50:18;;;;;;;6.97;2.30;;;;;;;12.23;74.20;100476.03;7392458;19;20376;-62
2023/11/08 10:52:46;;;;;;;5.63;1.95;;;;;;;12.29;72.99;100473.63;7395635;19;20337;-63
2023/11/08 10:55:13;;;;;;;4.30;1.73;;;;;;;12.19;72.57;100474.75;7394734;19;20710;-63
2023/11/08 10:57:42;;;;;;;5.97;1.95;;;;;;;12.14;72.41;100471.88;7394250;19;20356;-62
2023/11/08 11:00:09;;;;;;;4.55;1.50;;;;;;;12.13;72.00;100472.06;7389970;19;20372;-63
2023/11/08 11:02:48;;;;;;;6.10;1.92;;;;;;;12.08;71.87;100483.25;7393868;19;20385;-63
2023/11/08 11:05:20;;;;;;;4.93;1.67;;;;;;;12.10;71.60;100469.78;7385971;19;20336;-62
2023/11/08 11:07:48;;;;;;;6.25;2.10;;;;;;;12.14;71.95;100476.38;7392123;19;20360;-62
2023/11/08 11:10:15;;;;;;;5.05;1.65;;;;;;;12.23;72.44;100468.06;7392212;19;20340;-60
2023/11/08 11:13:04;;;;;;;3.92;1.73;;;;;;;12.45;72.37;100468.03;7391491;19;20352;-62
2023/11/08 11:15:57;;;;;;;6.07;1.75;;;;;;;12.63;70.81;100459.56;7394787;19;20349;-62
2023/11/08 11:18:33;;;;;;;5.53;1.70;;;;;;;12.80;70.36;100470.75;7387940;19;20363;-61
2023/11/08 11:21:19;;;;;;;6.13;1.70;;;;;;;12.92;69.38;100471.00;7394626;19;20376;-62
2023/11/08 11:23:46;;;;;;;4.57;1.75;;;;;;;13.00;68.56;100470.84;7391882;19;20440;-62
2023/11/08 11:26:13;;;;;;;6.22;1.67;;;;;;;13.09;67.53;100468.84;7393470;19;20353;-61
2023/11/08 11:28:53;;;;;;;4.05;1.30;;;;;;;13.34;68.45;100467.34;7391971;19;20360;-62
2023/11/08 11:31:43;;;;;;;4.63;1.38;;;;;;;13.44;67.31;100462.47;7392714;19;20365;-62
2023/11/08 11:34:22;;;;;;;5.90;1.50;;;;;;;13.54;66.79;100470.13;7391269;19;20368;-61
2023/11/08 11:37:10;;;;;;;5.68;1.55;;;;;;;13.62;66.72;100464.63;7393795;19;20360;-62